Portada
METAR-TAF:

METAR-TAF

Aeroports :

Almeria, Espanya

latitud: 36-51N, longitud: 002-23W, altitud: 15 m

Observació

L'informe es va fer fa 33 minuts, a les 19:00 UTC
Vent 4 kt del Sud/Sud-Oest, variant entre Sud i Oest/Sud-Oest
Temperatura 26°C
Humitat 89%
Pressió 1010 hPa
Visibilitat 10 km o més
sense núvols per sota de 1500 mi sense presència de cumulonimbus.

METAR: LEAM 231900Z 20004KT 170V240 CAVOK 26/24 Q1010

Hora: 21:33 (19:33 UTC)

Pronòstic

L'informe es va fer fa 2 hores i 33 minuts, a les 17:00 UTC
Pronòstic vàlid del 23 a les 18 UTC al 24 a les 18 UTC
Vent 9 kt del Sud
Visibilitat 10 km o més
sense núvols per sota de 1500 mi sense presència de cumulonimbus.
Evolucionant progressivament
l' 24 a les 13 UTC al 24 a les 15 UTC
Vent 12 kt del Oest/Sud-Oest

TAF: LEAM 231700Z 2318/2418 18009KT CAVOK TX32/2416Z TN20/2405Z BECMG 2413/2415 24012KT

Observacions i pronòstics meteorològics de més de 4000 aeroports (METAR i TAF).

Les estacions disponibles són els punts grocs i vermells al mapa.

Posi el ratolí al punt desitjat per veure el nom de l'estació.

Feu clic per veure les observacions i els pronòstics meteorològics.

Per canviar el mapa: feu clic els botons verds amb una creu de color negre per apropar; al botó verd amb un guió per allunyar la imatge; o en les fletxes verdes per a mapes adjacents.


METAR-TAF: